Time;durP1;ratioP1;P1;durP2;ratioP2;P2;SDS_P1;SDS_P2;PMS_P1;PMS_P2;Temp;Humidity;BMP_temperature;BMP_pressure;BME280_temperature;BME280_humidity;BME280_pressure;Samples;Min_cycle;Max_cycle;Signal;HPM_P1;HPM_P2
2022/10/31 00:00:15;;;;;;;9.55;3.67;;;11.10;87.20;;;;;;5061611;28;20045;-62
2022/10/31 00:02:47;;;;;;;10.30;3.80;;;11.00;87.20;;;;;;5059147;28;20454;-61
2022/10/31 00:05:14;;;;;;;10.23;3.97;;;11.00;87.10;;;;;;5064605;28;20952;-61
2022/10/31 00:07:41;;;;;;;7.80;3.53;;;11.00;87.10;;;;;;5061936;28;20435;-62
2022/10/31 00:10:09;;;;;;;9.02;3.55;;;11.00;87.10;;;;;;5067046;28;20071;-61
2022/10/31 00:12:39;;;;;;;9.13;3.55;;;11.00;87.00;;;;;;5070483;28;20071;-62
2022/10/31 00:15:07;;;;;;;9.27;3.88;;;10.90;87.00;;;;;;5068101;28;20036;-61
2022/10/31 00:17:36;;;;;;;8.57;3.53;;;11.00;87.00;;;;;;5067614;28;20052;-62
2022/10/31 00:20:04;;;;;;;8.75;3.08;;;10.90;86.90;;;;;;5067805;28;20051;-62
2022/10/31 00:22:31;;;;;;;7.28;3.30;;;10.90;87.00;;;;;;5069147;28;20127;-61
2022/10/31 00:24:58;;;;;;;9.15;3.08;;;10.90;87.00;;;;;;5066620;28;20114;-61
2022/10/31 00:27:25;;;;;;;7.10;3.30;;;10.90;87.00;;;;;;5062362;28;20040;-63
2022/10/31 00:29:55;;;;;;;6.68;3.25;;;10.80;87.00;;;;;;5064308;28;20049;-61
2022/10/31 00:32:22;;;;;;;5.68;3.38;;;10.90;87.00;;;;;;5054055;28;20051;-60
2022/10/31 00:34:48;;;;;;;7.85;3.35;;;10.90;87.00;;;;;;5060585;28;20044;-61
2022/10/31 00:37:17;;;;;;;6.90;3.00;;;10.90;86.90;;;;;;5065423;28;20387;-60
2022/10/31 00:39:45;;;;;;;7.05;3.30;;;10.80;86.90;;;;;;5062363;28;20118;-62
2022/10/31 00:42:12;;;;;;;7.55;3.40;;;10.80;86.90;;;;;;5061154;28;20036;-62
2022/10/31 00:44:42;;;;;;;7.53;3.53;;;10.80;87.00;;;;;;5065433;28;20047;-62
2022/10/31 00:47:09;;;;;;;9.23;3.15;;;10.70;87.00;;;;;;5058735;28;20036;-62
2022/10/31 00:49:36;;;;;;;7.45;3.70;;;10.70;87.00;;;;;;5065864;28;20490;-62
2022/10/31 00:52:03;;;;;;;7.38;3.22;;;10.70;87.00;;;;;;5069308;28;20131;-61
2022/10/31 00:54:31;;;;;;;6.20;3.05;;;10.70;86.90;;;;;;5061461;28;20033;-62
2022/10/31 00:56:58;;;;;;;8.63;2.95;;;10.70;86.90;;;;;;5065771;28;20044;-62
2022/10/31 00:59:25;;;;;;;5.50;3.20;;;10.70;87.00;;;;;;5061977;28;20131;-61
2022/10/31 01:01:52;;;;;;;7.95;3.47;;;10.70;87.00;;;;;;5064997;28;20135;-61
2022/10/31 01:04:20;;;;;;;8.98;3.15;;;10.70;87.00;;;;;;5063336;28;20067;-60
2022/10/31 01:06:47;;;;;;;9.20;3.55;;;10.60;87.10;;;;;;5062069;28;20086;-62
2022/10/31 01:09:13;;;;;;;8.18;3.17;;;10.70;87.10;;;;;;5061799;28;20090;-60
2022/10/31 01:11:42;;;;;;;8.43;3.03;;;10.60;87.00;;;;;;5063748;28;20157;-62
2022/10/31 01:14:10;;;;;;;9.00;4.22;;;10.60;87.00;;;;;;5055744;28;20053;-61
2022/10/31 01:16:40;;;;;;;7.18;3.47;;;10.60;87.00;;;;;;5060829;28;20134;-62
2022/10/31 01:19:07;;;;;;;8.77;3.33;;;10.60;87.10;;;;;;5058116;28;20045;-62
2022/10/31 01:21:35;;;;;;;7.45;3.10;;;10.60;87.00;;;;;;5067184;28;20043;-63
2022/10/31 01:24:02;;;;;;;7.00;3.28;;;10.60;87.10;;;;;;5065974;28;20052;-62
2022/10/31 01:26:39;;;;;;;7.82;3.35;;;10.60;87.10;;;;;;5059577;28;20071;-62
2022/10/31 01:29:08;;;;;;;8.90;3.92;;;10.60;87.10;;;;;;5059976;28;20483;-60
2022/10/31 01:31:42;;;;;;;5.93;2.70;;;10.60;87.10;;;;;;5060378;28;20036;-62
2022/10/31 01:34:13;;;;;;;10.95;3.25;;;10.50;87.10;;;;;;5065658;28;20486;-62
2022/10/31 01:36:50;;;;;;;8.27;3.10;;;10.50;87.10;;;;;;5068944;28;20048;-63
2022/10/31 01:39:19;;;;;;;6.75;3.15;;;10.50;87.20;;;;;;5063683;28;20402;-63
2022/10/31 01:41:48;;;;;;;7.03;3.00;;;10.50;87.30;;;;;;5066984;28;20032;-61
2022/10/31 01:44:53;;;;;;;6.30;2.97;;;10.40;87.40;;;;;;5064032;28;20405;-62
2022/10/31 01:47:25;;;;;;;8.25;3.20;;;10.40;87.60;;;;;;5061386;28;20520;-62
2022/10/31 01:49:55;;;;;;;7.38;3.17;;;10.40;87.60;;;;;;5063554;28;20044;-64
2022/10/31 01:52:25;;;;;;;8.50;3.90;;;10.40;87.70;;;;;;5065361;28;20052;-61
2022/10/31 01:54:57;;;;;;;7.75;3.05;;;10.40;87.80;;;;;;5063524;28;20061;-62
2022/10/31 01:57:25;;;;;;;7.18;3.35;;;10.40;87.80;;;;;;5063016;28;20091;-62
2022/10/31 01:59:58;;;;;;;8.40;3.55;;;10.40;87.90;;;;;;5054475;28;20094;-62
2022/10/31 02:02:30;;;;;;;7.95;3.40;;;10.40;88.00;;;;;;5060164;28;20065;-62
2022/10/31 02:04:58;;;;;;;9.80;4.32;;;10.50;88.00;;;;;;5066218;28;20114;-62
2022/10/31 02:07:28;;;;;;;12.35;4.57;;;10.40;88.10;;;;;;5061840;28;20095;-61
2022/10/31 02:10:01;;;;;;;13.68;3.80;;;10.40;88.20;;;;;;5061315;28;20490;-61
2022/10/31 02:12:29;;;;;;;9.20;3.33;;;10.40;88.20;;;;;;5066895;28;20051;-61
2022/10/31 02:15:01;;;;;;;7.93;3.05;;;10.40;88.10;;;;;;5062119;28;20494;-61
2022/10/31 02:17:30;;;;;;;10.02;3.35;;;10.40;88.10;;;;;;5067851;28;20045;-62
2022/10/31 02:20:07;;;;;;;8.70;2.88;;;10.40;88.00;;;;;;5069401;28;20064;-62
2022/10/31 02:22:44;;;;;;;9.27;3.50;;;10.40;87.90;;;;;;5060712;28;20033;-61
2022/10/31 02:25:32;;;;;;;7.95;2.90;;;10.40;88.10;;;;;;5067407;28;20041;-60
2022/10/31 02:28:20;;;;;;;9.98;3.53;;;10.40;88.20;;;;;;5070514;28;20048;-61
2022/10/31 02:31:12;;;;;;;9.43;3.30;;;10.40;88.20;;;;;;5062119;28;20094;-61
2022/10/31 02:33:44;;;;;;;8.15;3.50;;;10.40;88.30;;;;;;5058818;28;20061;-62
2022/10/31 02:36:19;;;;;;;8.70;3.45;;;10.30;88.20;;;;;;5069709;28;20064;-60
2022/10/31 02:38:57;;;;;;;8.60;3.50;;;10.30;88.30;;;;;;5069498;28;20435;-61
2022/10/31 02:41:48;;;;;;;10.60;3.92;;;10.30;88.30;;;;;;5064631;28;20140;-61
2022/10/31 02:44:23;;;;;;;7.82;3.25;;;10.30;88.30;;;;;;5071524;28;20044;-61
2022/10/31 02:46:57;;;;;;;10.48;4.07;;;10.30;88.30;;;;;;5069848;28;20399;-60
2022/10/31 02:49:29;;;;;;;8.75;3.53;;;10.30;88.40;;;;;;5072276;28;20376;-61
2022/10/31 02:51:56;;;;;;;12.85;5.22;;;10.20;88.40;;;;;;5070014;28;20406;-63
2022/10/31 02:54:25;;;;;;;8.38;3.67;;;10.20;88.40;;;;;;5073069;28;20041;-62
2022/10/31 02:56:59;;;;;;;8.38;3.35;;;10.20;88.50;;;;;;5070815;28;20044;-62
2022/10/31 02:59:27;;;;;;;6.82;2.78;;;10.20;88.50;;;;;;5073667;28;20041;-63
2022/10/31 03:02:18;;;;;;;9.93;3.78;;;10.20;88.40;;;;;;5062224;28;20045;-62
2022/10/31 03:04:56;;;;;;;10.18;3.78;;;10.20;88.50;;;;;;5075998;28;20052;-63
2022/10/31 03:07:31;;;;;;;8.20;3.33;;;10.20;88.50;;;;;;5063835;28;20036;-63
2022/10/31 03:10:05;;;;;;;6.78;3.50;;;10.20;88.40;;;;;;5063125;28;20040;-63
2022/10/31 03:12:40;;;;;;;7.40;3.42;;;10.20;88.30;;;;;;5068593;28;20478;-63
2022/10/31 03:15:15;;;;;;;9.88;3.40;;;10.20;88.40;;;;;;5065477;28;20052;-62
2022/10/31 03:17:53;;;;;;;9.85;3.70;;;10.10;88.50;;;;;;5066204;28;20079;-62
2022/10/31 03:20:23;;;;;;;7.32;3.45;;;10.10;88.50;;;;;;5072326;28;20049;-62
2022/10/31 03:22:50;;;;;;;8.95;3.42;;;10.10;88.30;;;;;;5073006;28;20422;-63
2022/10/31 03:25:19;;;;;;;9.50;4.13;;;10.10;88.40;;;;;;5064197;28;20052;-62
2022/10/31 03:27:48;;;;;;;8.32;3.65;;;10.10;88.40;;;;;;5070263;28;20125;-62
2022/10/31 03:30:16;;;;;;;9.20;3.85;;;10.10;88.50;;;;;;5063682;28;20156;-62
2022/10/31 03:33:00;;;;;;;7.60;3.38;;;10.10;88.40;;;;;;5068753;28;20058;-62
2022/10/31 03:35:31;;;;;;;6.28;3.03;;;10.10;88.40;;;;;;5070033;28;20044;-62
2022/10/31 03:38:01;;;;;;;6.30;3.13;;;10.10;88.40;;;;;;5066053;28;20045;-61
2022/10/31 03:40:28;;;;;;;6.20;2.95;;;10.20;88.30;;;;;;5071486;28;20047;-64
2022/10/31 03:43:00;;;;;;;7.35;2.78;;;10.20;88.40;;;;;;5075159;28;20057;-63
2022/10/31 03:45:31;;;;;;;5.80;3.22;;;10.10;88.30;;;;;;5068639;28;20055;-63
2022/10/31 03:48:00;;;;;;;7.40;3.13;;;10.10;88.30;;;;;;5066204;28;20072;-61
2022/10/31 03:50:33;;;;;;;8.23;3.72;;;10.10;88.40;;;;;;5066460;28;20059;-61
2022/10/31 03:53:07;;;;;;;7.10;3.53;;;10.10;88.50;;;;;;5068009;28;20490;-60
2022/10/31 03:55:41;;;;;;;7.65;3.58;;;10.10;88.40;;;;;;5070978;28;20071;-61
2022/10/31 03:58:11;;;;;;;7.60;3.40;;;10.10;88.50;;;;;;5071978;28;20119;-62
2022/10/31 04:00:39;;;;;;;;;;;10.10;88.40;;;;;;5056932;28;20656;-62
2022/10/31 04:03:11;;;;;;;6.10;3.13;;;10.10;88.40;;;;;;5066488;28;19927;-63
2022/10/31 04:05:44;;;;;;;7.90;3.63;;;10.10;88.50;;;;;;5078638;28;20053;-62
2022/10/31 04:08:18;;;;;;;5.75;2.95;;;10.10;88.60;;;;;;5069264;28;20049;-60
2022/10/31 04:10:48;;;;;;;6.93;3.25;;;10.10;88.60;;;;;;5079978;28;20044;-62
2022/10/31 04:13:20;;;;;;;7.60;3.33;;;10.10;88.60;;;;;;5070653;28;20055;-61
2022/10/31 04:15:52;;;;;;;7.72;3.70;;;10.10;88.60;;;;;;5063273;28;20323;-62
2022/10/31 04:18:25;;;;;;;10.10;4.03;;;10.20;88.60;;;;;;5067113;28;20052;-61
2022/10/31 04:21:02;;;;;;;7.40;3.60;;;10.20;88.60;;;;;;5066453;28;20117;-62
2022/10/31 04:23:29;;;;;;;8.60;4.03;;;10.20;88.70;;;;;;5081441;28;20044;-61
2022/10/31 04:25:56;;;;;;;6.03;3.20;;;10.20;88.80;;;;;;5064499;28;20040;-62
2022/10/31 04:28:24;;;;;;;8.70;3.65;;;10.20;88.80;;;;;;5065757;28;20474;-59
2022/10/31 04:30:52;;;;;;;8.73;3.67;;;10.20;88.90;;;;;;5064204;28;20134;-62
2022/10/31 04:33:19;;;;;;;8.45;3.80;;;10.20;88.90;;;;;;5071042;28;20439;-60
2022/10/31 04:35:49;;;;;;;9.05;3.63;;;10.10;89.10;;;;;;5062091;28;20056;-61
2022/10/31 04:38:15;;;;;;;8.30;3.88;;;10.20;89.10;;;;;;5059910;28;20063;-61
2022/10/31 04:40:44;;;;;;;10.55;4.13;;;10.20;89.10;;;;;;5084052;28;20471;-62
2022/10/31 04:43:37;;;;;;;8.88;3.67;;;10.20;89.10;;;;;;5067360;28;20498;-63
2022/10/31 04:46:04;;;;;;;8.27;3.90;;;10.10;89.10;;;;;;5062186;28;21556;-62
2022/10/31 04:48:31;;;;;;;7.88;3.58;;;10.10;89.10;;;;;;5068104;28;20139;-62
2022/10/31 04:51:03;;;;;;;8.23;3.92;;;10.10;89.10;;;;;;5069141;28;20560;-68
2022/10/31 04:53:30;;;;;;;8.40;3.65;;;10.10;89.30;;;;;;5067090;28;20100;-61
2022/10/31 04:56:26;;;;;;;8.18;3.78;;;10.10;89.20;;;;;;5056299;28;20040;-61
2022/10/31 04:58:58;;;;;;;13.48;5.00;;;10.10;89.30;;;;;;5060664;28;20474;-61
2022/10/31 05:01:28;;;;;;;9.30;3.60;;;10.10;89.20;;;;;;5060698;28;20139;-61
2022/10/31 05:03:56;;;;;;;7.47;3.53;;;10.10;89.20;;;;;;5064643;28;20060;-61
2022/10/31 05:06:25;;;;;;;6.63;3.50;;;10.10;89.20;;;;;;5078382;28;20409;-62
2022/10/31 05:08:52;;;;;;;9.30;4.28;;;10.10;89.20;;;;;;5055935;28;20521;-63
2022/10/31 05:11:20;;;;;;;10.27;4.60;;;10.10;89.20;;;;;;5064960;28;20037;-61
2022/10/31 05:13:47;;;;;;;9.20;3.72;;;10.10;89.20;;;;;;5055752;28;20498;-62
2022/10/31 05:16:14;;;;;;;12.40;4.28;;;10.10;89.30;;;;;;5066754;28;20044;-60
2022/10/31 05:19:16;;;;;;;11.48;4.07;;;10.00;89.40;;;;;;5063019;28;20055;-62
2022/10/31 05:22:03;;;;;;;9.05;3.85;;;10.10;89.30;;;;;;5063679;28;20067;-62
2022/10/31 05:24:30;;;;;;;9.50;3.90;;;10.10;89.20;;;;;;5059535;28;20080;-61
2022/10/31 05:26:57;;;;;;;8.40;3.90;;;10.10;89.30;;;;;;5065922;28;20053;-61
2022/10/31 05:29:24;;;;;;;8.02;3.97;;;10.10;89.30;;;;;;5067085;28;20067;-61
2022/10/31 05:31:50;;;;;;;10.23;3.90;;;10.10;89.20;;;;;;5062988;28;20041;-62
2022/10/31 05:34:43;;;;;;;7.60;3.80;;;10.10;89.20;;;;;;5070197;28;20126;-61
2022/10/31 05:37:41;;;;;;;7.38;4.10;;;10.00;89.30;;;;;;5062723;28;20131;-63
2022/10/31 05:40:10;;;;;;;8.68;3.90;;;10.00;89.20;;;;;;5061707;28;20048;-62
2022/10/31 05:42:43;;;;;;;6.85;3.65;;;10.00;89.20;;;;;;5060779;28;20048;-62
2022/10/31 05:45:11;;;;;;;6.50;3.53;;;10.00;89.10;;;;;;5066930;28;20487;-62
2022/10/31 05:47:51;;;;;;;7.65;3.47;;;10.00;89.00;;;;;;5063528;28;20048;-60
2022/10/31 05:50:37;;;;;;;7.82;3.42;;;10.00;89.00;;;;;;5064934;28;20055;-63
2022/10/31 05:53:11;;;;;;;6.93;4.10;;;10.00;89.00;;;;;;5063837;28;20080;-61
2022/10/31 05:55:40;;;;;;;7.45;3.35;;;9.90;89.00;;;;;;5064509;28;20086;-61
2022/10/31 05:58:13;;;;;;;7.53;3.72;;;9.90;89.00;;;;;;5063809;28;20044;-62
2022/10/31 06:00:43;;;;;;;7.38;3.80;;;9.90;89.10;;;;;;5060135;28;20063;-61
2022/10/31 06:03:12;;;;;;;6.43;3.67;;;9.90;89.00;;;;;;5061616;28;20121;-62
2022/10/31 06:05:47;;;;;;;5.97;3.40;;;9.90;89.10;;;;;;5066373;28;20079;-61
2022/10/31 06:08:15;;;;;;;9.65;3.95;;;9.90;89.20;;;;;;5067615;28;20080;-61
2022/10/31 06:10:43;;;;;;;8.15;3.70;;;9.90;89.10;;;;;;5051449;28;20040;-62
2022/10/31 06:13:12;;;;;;;7.07;3.40;;;9.90;89.20;;;;;;5087635;28;20045;-62
2022/10/31 06:15:44;;;;;;;5.65;3.08;;;9.90;89.10;;;;;;5069545;28;20045;-63
2022/10/31 06:18:12;;;;;;;7.15;3.72;;;9.90;89.10;;;;;;5065920;28;20048;-61
2022/10/31 06:20:47;;;;;;;7.93;3.05;;;9.90;89.10;;;;;;5084335;28;20059;-61
2022/10/31 06:23:15;;;;;;;7.57;3.35;;;9.90;89.20;;;;;;5066515;28;20075;-61
2022/10/31 06:25:48;;;;;;;8.93;4.00;;;9.90;89.10;;;;;;5068899;28;20052;-61
2022/10/31 06:28:15;;;;;;;7.80;3.53;;;9.90;89.20;;;;;;5087742;28;20045;-60
2022/10/31 06:30:50;;;;;;;8.80;4.10;;;9.90;89.20;;;;;;5067799;28;20136;-62
2022/10/31 06:33:18;;;;;;;11.15;4.95;;;9.80;89.20;;;;;;5069743;28;20048;-61
2022/10/31 06:35:55;;;;;;;8.68;4.72;;;9.90;89.20;;;;;;5064145;28;20375;-61
2022/10/31 06:38:23;;;;;;;10.48;5.03;;;9.90;89.20;;;;;;5067267;28;20102;-61
2022/10/31 06:40:50;;;;;;;9.38;4.50;;;9.90;89.10;;;;;;5070805;28;20044;-61
2022/10/31 06:43:17;;;;;;;7.68;3.75;;;9.90;89.10;;;;;;5073767;28;20048;-61
2022/10/31 06:45:45;;;;;;;7.13;3.97;;;9.90;89.20;;;;;;5063283;28;20047;-61
2022/10/31 06:48:11;;;;;;;6.35;3.58;;;9.90;89.10;;;;;;5068244;28;20103;-59
2022/10/31 06:50:46;;;;;;;9.65;4.10;;;9.90;89.20;;;;;;5068777;28;20503;-60
2022/10/31 06:53:14;;;;;;;9.50;3.80;;;9.90;89.20;;;;;;5069145;28;20066;-61
2022/10/31 06:55:43;;;;;;;9.65;4.10;;;9.90;89.30;;;;;;5086023;28;20041;-60
2022/10/31 06:58:12;;;;;;;7.60;4.07;;;9.90;89.30;;;;;;5061284;28;20094;-61
2022/10/31 07:00:40;;;;;;;8.20;3.90;;;9.90;89.30;;;;;;5062994;28;20125;-61
2022/10/31 07:03:11;;;;;;;9.27;3.88;;;10.00;89.40;;;;;;5070220;28;20049;-61
2022/10/31 07:05:38;;;;;;;7.97;3.70;;;10.10;89.30;;;;;;5065658;28;20048;-61
2022/10/31 07:08:09;;;;;;;8.35;3.63;;;10.10;89.10;;;;;;5069699;28;20119;-62
2022/10/31 07:10:38;;;;;;;8.15;3.97;;;10.10;89.30;;;;;;5063233;28;20043;-60
2022/10/31 07:13:10;;;;;;;6.30;3.25;;;10.10;89.20;;;;;;5067476;28;20044;-62
2022/10/31 07:15:40;;;;;;;7.60;3.60;;;10.10;89.30;;;;;;5066162;28;20497;-61
2022/10/31 07:18:09;;;;;;;7.72;4.57;;;10.10;89.20;;;;;;5062372;28;20116;-61
2022/10/31 07:20:37;;;;;;;8.73;3.65;;;10.20;89.00;;;;;;5066109;28;20437;-60
2022/10/31 07:23:04;;;;;;;6.82;3.72;;;10.20;88.80;;;;;;5070422;28;20052;-60
2022/10/31 07:25:32;;;;;;;10.10;4.10;;;10.20;88.80;;;;;;5061605;28;20490;-61
2022/10/31 07:28:19;;;;;;;7.82;4.13;;;10.30;88.80;;;;;;5066136;28;20045;-60
2022/10/31 07:30:51;;;;;;;8.50;4.50;;;10.30;88.80;;;;;;5062665;28;20176;-61
2022/10/31 07:33:21;;;;;;;9.27;3.47;;;10.30;89.10;;;;;;5058434;28;20048;-61
2022/10/31 07:36:11;;;;;;;7.68;3.83;;;10.40;89.20;;;;;;5064739;28;20059;-63
2022/10/31 07:38:41;;;;;;;6.50;3.60;;;10.40;89.30;;;;;;5064384;28;20048;-62
2022/10/31 07:41:08;;;;;;;7.82;4.10;;;10.40;89.40;;;;;;5070211;28;20414;-61
2022/10/31 07:43:41;;;;;;;8.73;4.53;;;10.40;89.60;;;;;;5062015;28;20045;-61
2022/10/31 07:46:17;;;;;;;8.00;4.47;;;10.50;89.60;;;;;;5061387;28;20060;-61
2022/10/31 07:49:03;;;;;;;7.53;4.38;;;10.50;89.60;;;;;;5062464;28;20194;-62
2022/10/31 07:51:48;;;;;;;8.32;4.13;;;10.60;89.60;;;;;;5067724;28;20063;-62
2022/10/31 07:54:44;;;;;;;9.55;4.47;;;10.60;89.10;;;;;;5049173;28;20195;-62
2022/10/31 07:57:11;;;;;;;7.00;3.83;;;10.70;89.80;;;;;;5063119;28;20037;-62
2022/10/31 07:59:41;;;;;;;7.25;3.53;;;10.70;89.90;;;;;;5065600;28;20044;-61
2022/10/31 08:02:09;;;;;;;7.53;4.30;;;10.70;89.60;;;;;;5059253;28;20048;-61
2022/10/31 08:04:49;;;;;;;7.60;4.32;;;10.80;89.80;;;;;;5065595;28;20383;-62
2022/10/31 08:07:38;;;;;;;8.32;4.47;;;10.80;89.70;;;;;;5064064;28;20059;-61
2022/10/31 08:10:08;;;;;;;7.82;4.00;;;10.90;89.60;;;;;;5063374;28;20054;-61
2022/10/31 08:12:35;;;;;;;8.27;3.78;;;10.90;89.80;;;;;;5061224;28;20071;-61
2022/10/31 08:15:07;;;;;;;7.18;3.58;;;11.00;89.90;;;;;;5066091;28;20055;-61
2022/10/31 08:17:36;;;;;;;7.50;4.10;;;11.00;89.70;;;;;;5075831;28;20502;-63
2022/10/31 08:20:03;;;;;;;8.25;3.65;;;11.10;89.80;;;;;;5063176;28;20067;-61
2022/10/31 08:22:37;;;;;;;9.90;3.92;;;11.10;89.30;;;;;;5064522;28;20137;-61
2022/10/31 08:25:05;;;;;;;7.85;3.78;;;11.20;90.10;;;;;;5064603;28;20346;-61
2022/10/31 08:27:32;;;;;;;8.88;3.72;;;11.30;90.10;;;;;;5062792;28;20128;-62
2022/10/31 08:30:01;;;;;;;9.45;3.88;;;11.30;90.30;;;;;;5066262;28;20421;-60
2022/10/31 08:32:30;;;;;;;7.78;3.78;;;11.30;90.40;;;;;;5076805;28;20052;-62
2022/10/31 08:35:16;;;;;;;7.32;4.22;;;11.40;90.60;;;;;;5069696;28;20525;-62
2022/10/31 08:38:05;;;;;;;5.95;3.58;;;11.40;90.40;;;;;;5059345;28;20115;-63
2022/10/31 08:40:33;;;;;;;;;;;11.50;90.70;;;;;;5065096;28;20105;-60
2022/10/31 08:43:04;;;;;;;5.78;3.50;;;11.60;91.00;;;;;;5059326;28;19921;-61
2022/10/31 08:45:33;;;;;;;8.40;4.38;;;11.60;91.00;;;;;;5058742;28;20044;-61
2022/10/31 08:48:03;;;;;;;6.88;3.63;;;11.70;91.00;;;;;;5067177;28;20504;-59
2022/10/31 08:50:31;;;;;;;;;;;11.70;91.20;;;;;;5070169;28;20456;-62
2022/10/31 08:53:03;;;;;;;10.77;3.72;;;11.80;91.10;;;;;;5064027;28;19938;-62
2022/10/31 08:55:30;;;;;;;8.88;3.50;;;11.90;91.10;;;;;;5063740;28;20494;-62
2022/10/31 08:58:06;;;;;;;7.72;3.55;;;11.90;91.10;;;;;;5060973;28;20048;-62
2022/10/31 09:00:42;;;;;;;6.93;3.80;;;11.90;91.10;;;;;;5064821;28;20494;-61
2022/10/31 09:03:18;;;;;;;8.70;4.18;;;12.10;91.20;;;;;;5063287;28;20049;-61
2022/10/31 09:05:46;;;;;;;8.93;3.78;;;12.10;91.40;;;;;;5061908;28;20448;-61
2022/10/31 09:08:14;;;;;;;8.57;4.30;;;12.20;91.40;;;;;;5066695;28;20720;-61
2022/10/31 09:10:42;;;;;;;9.35;4.63;;;12.20;91.50;;;;;;5083316;28;20055;-62
2022/10/31 09:13:12;;;;;;;10.75;4.93;;;12.30;91.60;;;;;;5066787;28;20056;-62
2022/10/31 09:16:01;;;;;;;6.95;4.15;;;12.40;91.50;;;;;;5061367;28;20402;-60
2022/10/31 09:18:32;;;;;;;7.82;3.78;;;12.50;91.50;;;;;;5065760;28;20044;-62
2022/10/31 09:21:00;;;;;;;7.72;4.10;;;12.50;91.50;;;;;;5058466;28;20055;-60
2022/10/31 09:23:30;;;;;;;6.40;3.55;;;12.60;91.40;;;;;;5065242;28;20048;-61
2022/10/31 09:26:00;;;;;;;8.70;3.85;;;12.60;91.40;;;;;;5062656;28;20052;-61
2022/10/31 09:28:46;;;;;;;7.25;4.20;;;12.70;91.10;;;;;;5065907;28;20048;-60
2022/10/31 09:31:15;;;;;;;6.20;3.63;;;12.80;91.00;;;;;;5062345;28;20060;-61
2022/10/31 09:33:58;;;;;;;8.48;4.32;;;12.90;90.80;;;;;;5059453;28;20045;-62
2022/10/31 09:36:37;;;;;;;9.75;4.38;;;13.00;90.70;;;;;;5067428;28;20123;-62
2022/10/31 09:39:07;;;;;;;7.55;4.13;;;13.10;90.40;;;;;;5065131;28;20468;-61
2022/10/31 09:41:54;;;;;;;9.85;4.30;;;13.20;90.50;;;;;;5064705;28;20044;-60
2022/10/31 09:44:32;;;;;;;9.30;3.92;;;13.30;90.50;;;;;;5072072;28;20048;-62
2022/10/31 09:47:04;;;;;;;7.53;4.25;;;13.50;90.20;;;;;;5067796;28;20053;-61
2022/10/31 09:49:54;;;;;;;7.95;4.07;;;13.60;90.20;;;;;;5062259;28;20041;-61
2022/10/31 09:52:25;;;;;;;11.23;4.25;;;13.70;90.50;;;;;;5064865;28;20182;-60
2022/10/31 09:54:55;;;;;;;8.90;4.25;;;13.80;90.30;;;;;;5078576;28;20628;-60
2022/10/31 09:57:28;;;;;;;8.05;4.03;;;13.90;90.60;;;;;;5063667;28;20051;-62
2022/10/31 09:59:55;;;;;;;6.78;3.80;;;14.00;90.30;;;;;;5064038;28;20135;-62
2022/10/31 10:02:28;;;;;;;14.52;4.22;;;14.10;90.20;;;;;;5055001;28;20057;-61
2022/10/31 10:05:00;;;;;;;8.55;4.80;;;14.20;89.80;;;;;;5055101;28;21511;-62
2022/10/31 10:07:39;;;;;;;6.88;3.83;;;14.20;89.90;;;;;;5068336;28;20052;-62
2022/10/31 10:10:48;;;;;;;7.40;3.40;;;14.30;90.10;;;;;;5066446;28;20087;-62
2022/10/31 10:13:43;;;;;;;8.70;4.45;;;14.30;90.00;;;;;;5065036;28;20518;-61
2022/10/31 10:16:33;;;;;;;7.57;3.92;;;14.40;90.00;;;;;;5065164;28;20045;-61
2022/10/31 10:19:11;;;;;;;8.23;3.70;;;14.40;89.80;;;;;;5060862;28;20136;-61
2022/10/31 10:21:50;;;;;;;8.30;4.05;;;14.40;90.00;;;;;;5060303;28;20053;-61
2022/10/31 10:24:30;;;;;;;7.30;3.90;;;14.40;89.90;;;;;;5067998;28;20051;-61
2022/10/31 10:27:07;;;;;;;7.22;3.78;;;14.50;89.70;;;;;;5065573;28;20078;-60
2022/10/31 10:29:40;;;;;;;8.95;4.28;;;14.60;89.90;;;;;;5062627;28;20032;-61
2022/10/31 10:32:14;;;;;;;8.85;4.05;;;14.50;89.70;;;;;;5060696;28;20463;-61
2022/10/31 10:34:47;;;;;;;6.85;3.35;;;14.50;90.00;;;;;;5061707;28;20041;-62
2022/10/31 10:37:28;;;;;;;9.85;4.03;;;14.50;90.10;;;;;;5061965;28;20050;-61
2022/10/31 10:40:01;;;;;;;8.55;3.65;;;14.50;90.10;;;;;;5061334;28;20087;-62
2022/10/31 10:48:17;;;;;;;7.50;3.78;;;14.60;89.90;;;;;;5005256;28;20060;-62
2022/10/31 10:50:48;;;;;;;6.75;3.88;;;14.60;89.90;;;;;;5046482;28;20102;-62
2022/10/31 10:53:59;;;;;;;10.48;4.10;;;14.60;90.20;;;;;;5066529;28;20044;-62
2022/10/31 10:56:37;;;;;;;6.97;3.83;;;14.70;89.90;;;;;;5069533;28;20490;-62
2022/10/31 10:59:04;;;;;;;8.00;4.32;;;14.60;89.90;;;;;;5064445;28;20095;-61
2022/10/31 11:01:33;;;;;;;10.85;4.20;;;14.70;89.80;;;;;;5065865;28;20563;-62
2022/10/31 11:04:04;;;;;;;10.70;3.85;;;14.70;89.80;;;;;;5063088;28;20037;-59
2022/10/31 11:06:31;;;;;;;;;;;14.70;89.70;;;;;;5059607;28;20044;-61
2022/10/31 11:09:09;;;;;;;7.80;3.75;;;14.70;89.90;;;;;;5062850;28;19932;-61
2022/10/31 11:11:36;;;;;;;6.85;3.20;;;14.70;90.00;;;;;;5069095;28;20048;-61
2022/10/31 11:14:06;;;;;;;9.68;3.78;;;14.70;89.90;;;;;;5065267;28;20037;-63
2022/10/31 11:16:37;;;;;;;6.50;3.33;;;14.70;89.80;;;;;;5050945;28;20402;-61
2022/10/31 11:19:14;;;;;;;8.45;3.58;;;14.80;89.50;;;;;;5069708;28;20045;-62
2022/10/31 11:21:41;;;;;;;7.93;3.20;;;14.90;89.60;;;;;;5067251;28;20048;-60
2022/10/31 11:24:16;;;;;;;9.23;3.38;;;14.90;89.80;;;;;;5065619;28;20452;-62
2022/10/31 11:26:49;;;;;;;6.20;3.47;;;14.90;89.50;;;;;;5070239;28;20395;-62
2022/10/31 11:29:17;;;;;;;;;;;15.00;89.60;;;;;;5066238;28;20045;-62
2022/10/31 11:31:47;;;;;;;7.80;3.45;;;15.00;89.40;;;;;;5065264;28;19920;-60
2022/10/31 11:34:19;;;;;;;9.32;3.50;;;15.00;89.50;;;;;;5067286;28;20049;-62
2022/10/31 11:36:46;;;;;;;7.70;4.03;;;15.00;89.00;;;;;;5069582;28;20474;-62
2022/10/31 11:39:20;;;;;;;6.05;3.42;;;15.10;89.30;;;;;;5067173;28;20127;-61
2022/10/31 11:41:48;;;;;;;6.45;3.10;;;15.10;89.50;;;;;;5065650;28;20094;-61
2022/10/31 11:44:18;;;;;;;8.82;3.47;;;15.10;89.30;;;;;;5064504;28;20044;-61
2022/10/31 11:46:49;;;;;;;9.43;3.45;;;15.20;89.40;;;;;;5066344;28;20151;-62
2022/10/31 11:49:21;;;;;;;7.00;3.10;;;15.20;89.30;;;;;;5059293;28;20125;-62
2022/10/31 11:51:52;;;;;;;8.48;3.35;;;15.20;89.20;;;;;;5061960;28;20044;-62
2022/10/31 11:54:24;;;;;;;7.00;3.35;;;15.30;88.90;;;;;;5068279;28;20051;-62
2022/10/31 11:56:51;;;;;;;5.93;3.15;;;15.30;89.20;;;;;;5061600;28;20037;-62
2022/10/31 11:59:27;;;;;;;6.45;3.13;;;15.40;89.00;;;;;;5064003;28;20045;-62
2022/10/31 12:01:56;;;;;;;7.50;3.40;;;15.40;89.10;;;;;;5058475;28;20037;-61
2022/10/31 12:04:39;;;;;;;6.43;2.97;;;15.40;89.00;;;;;;5067912;28;20036;-61
2022/10/31 12:07:06;;;;;;;6.50;3.38;;;15.50;89.10;;;;;;5059816;28;20049;-61
2022/10/31 12:09:37;;;;;;;8.10;3.72;;;15.50;89.10;;;;;;5061516;28;20124;-62
2022/10/31 12:12:23;;;;;;;6.28;3.20;;;15.60;89.00;;;;;;5058152;28;20076;-62
2022/10/31 12:15:02;;;;;;;7.47;3.08;;;15.60;89.00;;;;;;5066538;28;20051;-62
2022/10/31 12:17:39;;;;;;;10.77;3.40;;;15.60;88.90;;;;;;5064489;28;20052;-62
2022/10/31 12:20:21;;;;;;;8.30;3.03;;;15.60;89.00;;;;;;5060956;28;20033;-61
2022/10/31 12:22:58;;;;;;;7.18;3.13;;;15.70;89.10;;;;;;5065577;28;20044;-61
2022/10/31 12:25:38;;;;;;;10.13;3.50;;;15.70;89.10;;;;;;5066774;28;20111;-60
2022/10/31 12:28:28;;;;;;;7.65;3.40;;;15.70;89.00;;;;;;5063535;28;20399;-61
2022/10/31 12:30:59;;;;;;;;;;;15.70;89.00;;;;;;5058118;28;20048;-62
2022/10/31 12:33:49;;;;;;;6.72;3.22;;;15.80;89.10;;;;;;5066871;28;19927;-61
2022/10/31 12:36:36;;;;;;;7.68;3.35;;;15.80;88.90;;;;;;5067098;28;20064;-62
2022/10/31 12:39:24;;;;;;;7.10;2.90;;;15.80;88.90;;;;;;5062236;28;20128;-62
2022/10/31 12:42:06;;;;;;;6.47;3.33;;;15.90;89.00;;;;;;5067295;28;20070;-62
2022/10/31 12:44:58;;;;;;;10.48;3.83;;;15.80;88.60;;;;;;5065518;28;20037;-62
2022/10/31 12:47:44;;;;;;;8.48;3.58;;;15.90;88.70;;;;;;5063490;28;20044;-63
2022/10/31 12:50:28;;;;;;;8.13;3.10;;;16.00;88.50;;;;;;5066397;28;20041;-61
2022/10/31 12:53:07;;;;;;;8.38;3.13;;;16.00;88.30;;;;;;5062205;28;20041;-60
2022/10/31 12:55:45;;;;;;;7.18;3.30;;;16.00;88.40;;;;;;5061214;28;20204;-65
2022/10/31 12:58:21;;;;;;;7.90;3.38;;;16.10;88.30;;;;;;5055647;28;20402;-60
2022/10/31 13:00:52;;;;;;;8.13;3.40;;;16.00;88.20;;;;;;5061506;28;20040;-61
2022/10/31 13:03:27;;;;;;;9.73;2.97;;;16.10;88.20;;;;;;5058747;28;20048;-60
2022/10/31 13:05:59;;;;;;;8.70;3.95;;;16.10;88.10;;;;;;5064539;28;20063;-64
2022/10/31 13:08:31;;;;;;;7.80;4.07;;;16.10;88.20;;;;;;5058114;28;20123;-61
2022/10/31 13:11:10;;;;;;;8.82;4.32;;;16.10;88.10;;;;;;5062937;28;20122;-61
2022/10/31 13:13:43;;;;;;;9.02;4.47;;;16.10;88.10;;;;;;5058816;28;20044;-61
2022/10/31 13:16:16;;;;;;;8.98;4.43;;;16.10;88.10;;;;;;5063081;28;20048;-63
2022/10/31 13:18:47;;;;;;;8.38;4.45;;;16.20;87.90;;;;;;5066084;28;20055;-62
2022/10/31 13:21:20;;;;;;;8.07;4.10;;;16.20;88.00;;;;;;5064681;28;20490;-61
2022/10/31 13:23:50;;;;;;;7.38;4.18;;;16.20;87.90;;;;;;5065069;28;20597;-62